Time;durP1;ratioP1;P1;durP2;ratioP2;P2;SDS_P1;SDS_P2;PMS_P1;PMS_P2;Temp;Humidity;BMP_temperature;BMP_pressure;BME280_temperature;BME280_humidity;BME280_pressure;Samples;Min_cycle;Max_cycle;Signal;HPM_P1;HPM_P2
2022/01/02 00:00:09;;;;;;;13.43;7.70;;;23.50;54.40;;;;;;6163178;28;80505;-63
2022/01/02 00:03:09;;;;;;;11.85;6.93;;;23.50;54.40;;;;;;6165696;28;82935;-64
2022/01/02 00:06:10;;;;;;;13.15;7.55;;;23.50;54.30;;;;;;6160913;28;80534;-63
2022/01/02 00:09:10;;;;;;;12.18;7.72;;;23.50;54.40;;;;;;6161620;28;81265;-64
2022/01/02 00:12:12;;;;;;;13.57;7.72;;;23.50;54.30;;;;;;6162588;28;81061;-64
2022/01/02 00:15:13;;;;;;;10.57;6.82;;;23.50;54.60;;;;;;6167025;28;81885;-64
2022/01/02 00:18:14;;;;;;;11.50;6.93;;;23.50;54.50;;;;;;6161847;28;80867;-63
2022/01/02 00:21:14;;;;;;;10.68;6.90;;;23.50;54.40;;;;;;6162266;28;80256;-63
2022/01/02 00:24:20;;;;;;;12.50;7.32;;;23.50;54.40;;;;;;6160863;28;80322;-63
2022/01/02 00:27:20;;;;;;;10.88;6.53;;;23.50;54.60;;;;;;6177766;28;80676;-63
2022/01/02 00:30:21;;;;;;;11.23;6.88;;;23.50;54.60;;;;;;6175929;28;81141;-63
2022/01/02 00:33:21;;;;;;;13.13;7.93;;;23.50;54.40;;;;;;6166065;28;80537;-63
2022/01/02 00:36:22;;;;;;;11.73;7.28;;;23.50;54.50;;;;;;6164187;28;80467;-62
2022/01/02 00:39:23;;;;;;;12.15;7.60;;;23.50;54.50;;;;;;6160131;28;80339;-63
2022/01/02 00:42:23;;;;;;;13.30;7.50;;;23.50;54.50;;;;;;6164683;28;80673;-63
2022/01/02 00:45:24;;;;;;;13.20;7.38;;;23.50;54.60;;;;;;6159791;28;80821;-62
2022/01/02 00:48:24;;;;;;;11.65;7.68;;;23.50;54.50;;;;;;6162181;28;81650;-62
2022/01/02 00:51:25;;;;;;;7.93;5.32;;;23.50;54.50;;;;;;6159142;28;81762;-62
2022/01/02 00:54:27;;;;;;;11.23;7.32;;;23.50;55.00;;;;;;6165308;28;83653;-62
2022/01/02 00:57:28;;;;;;;10.48;6.57;;;23.50;54.70;;;;;;6162489;28;83708;-62
2022/01/02 01:00:29;;;;;;;10.30;7.07;;;23.50;54.60;;;;;;6164223;28;82267;-62
2022/01/02 01:03:29;;;;;;;13.02;7.75;;;23.50;54.90;;;;;;6161582;28;81327;-62
2022/01/02 01:06:30;;;;;;;12.05;7.10;;;23.50;54.70;;;;;;6192452;28;81659;-62
2022/01/02 01:09:30;;;;;;;11.23;7.32;;;23.40;55.30;;;;;;6171346;28;80485;-62
2022/01/02 01:12:32;;;;;;;10.48;6.88;;;23.40;54.60;;;;;;6158544;28;81594;-62
2022/01/02 01:15:32;;;;;;;8.85;6.40;;;23.40;54.90;;;;;;6163802;28;81819;-62
2022/01/02 01:18:33;;;;;;;9.85;5.57;;;23.40;54.80;;;;;;6164112;28;81268;-62
2022/01/02 01:21:34;;;;;;;10.80;7.00;;;23.40;54.80;;;;;;6164777;28;83464;-62
2022/01/02 01:24:35;;;;;;;11.57;7.22;;;23.50;54.60;;;;;;6173498;28;83175;-62
2022/01/02 01:27:36;;;;;;;12.45;7.47;;;23.40;54.30;;;;;;6175949;28;88733;-62
2022/01/02 01:30:37;;;;;;;12.93;7.43;;;23.50;54.20;;;;;;6167559;28;80350;-62
2022/01/02 01:33:38;;;;;;;14.02;7.47;;;23.40;54.20;;;;;;6158984;28;81800;-62
2022/01/02 01:36:38;;;;;;;12.10;6.97;;;23.40;54.30;;;;;;6157236;28;81679;-62
2022/01/02 01:39:39;;;;;;;12.60;7.65;;;23.40;54.10;;;;;;6177696;27;80246;-62
2022/01/02 01:42:42;;;;;;;10.52;6.60;;;23.40;54.00;;;;;;6209502;27;83009;-62
2022/01/02 01:45:43;;;;;;;10.77;6.75;;;23.40;53.90;;;;;;6192740;28;82941;-62
2022/01/02 01:48:44;;;;;;;11.05;7.35;;;23.50;54.00;;;;;;6178982;28;80893;-63
2022/01/02 01:51:46;;;;;;;11.93;7.47;;;23.40;54.00;;;;;;6195063;27;83304;-63
2022/01/02 01:54:46;;;;;;;10.55;6.60;;;23.40;54.00;;;;;;6208896;28;80404;-63
2022/01/02 01:57:47;;;;;;;9.80;6.72;;;23.40;54.10;;;;;;6159906;28;83208;-63
2022/01/02 02:00:47;;;;;;;9.82;6.53;;;23.40;54.10;;;;;;6160678;28;82936;-62
2022/01/02 02:03:58;;;;;;;8.85;5.93;;;23.40;53.90;;;;;;6208821;27;87796;-63
2022/01/02 02:07:00;;;;;;;11.13;6.60;;;23.40;54.00;;;;;;6195396;28;83441;-63
2022/01/02 02:10:11;;;;;;;11.10;6.43;;;23.40;54.00;;;;;;6158208;28;83112;-63
2022/01/02 02:13:13;;;;;;;12.20;7.03;;;23.40;54.00;;;;;;6165434;27;83647;-63
2022/01/02 02:16:19;;;;;;;8.27;5.37;;;23.40;54.00;;;;;;6200110;28;82811;-63
2022/01/02 02:19:19;;;;;;;9.65;7.05;;;23.40;53.90;;;;;;6166531;27;82100;-63
2022/01/02 02:22:20;;;;;;;10.63;6.60;;;23.40;54.00;;;;;;6202349;27;81332;-63
2022/01/02 02:25:20;;;;;;;11.68;5.85;;;23.40;54.00;;;;;;6171686;28;80553;-62
2022/01/02 02:28:26;;;;;;;8.05;5.82;;;23.40;54.10;;;;;;6158517;28;82202;-62
2022/01/02 02:31:26;;;;;;;9.18;5.55;;;23.40;54.60;;;;;;6168225;27;82596;-63
2022/01/02 02:34:27;;;;;;;7.68;5.05;;;23.50;54.50;;;;;;6167961;28;81008;-62
2022/01/02 02:37:29;;;;;;;9.20;5.57;;;23.50;54.50;;;;;;6149470;28;83408;-63
2022/01/02 02:40:30;;;;;;;7.80;4.90;;;23.40;54.60;;;;;;6169636;27;81474;-63
2022/01/02 02:50:16;;;;;;;8.55;5.72;;;23.40;54.90;;;;;;6151850;28;83275;-63
2022/01/02 02:53:16;;;;;;;8.60;5.75;;;23.40;54.80;;;;;;6158043;28;80918;-64
2022/01/02 02:56:41;;;;;;;8.07;5.43;;;23.40;54.60;;;;;;6142210;28;82978;-63
2022/01/02 02:59:42;;;;;;;6.95;4.93;;;23.40;55.10;;;;;;6158517;28;81926;-63
2022/01/02 03:02:43;;;;;;;7.97;4.90;;;23.40;54.80;;;;;;6156622;28;82518;-63
2022/01/02 03:05:44;;;;;;;7.90;5.00;;;23.40;55.20;;;;;;6157899;28;83331;-63
2022/01/02 03:08:45;;;;;;;8.77;5.25;;;23.40;54.90;;;;;;6161089;28;80880;-63
2022/01/02 03:11:46;;;;;;;8.00;4.68;;;23.40;54.70;;;;;;6158296;28;82131;-64
2022/01/02 03:14:46;;;;;;;5.30;3.55;;;23.40;54.70;;;;;;6196545;28;83383;-63
2022/01/02 03:17:48;;;;;;;8.63;5.90;;;23.40;55.40;;;;;;6204473;27;82807;-62
2022/01/02 03:20:48;;;;;;;9.15;5.80;;;23.40;54.50;;;;;;6207270;27;83503;-62
2022/01/02 03:23:49;;;;;;;13.13;5.32;;;23.40;54.30;;;;;;6161161;28;82004;-62
2022/01/02 03:26:51;;;;;;;9.85;5.82;;;23.40;54.00;;;;;;6197741;28;82268;-62
2022/01/02 03:29:51;;;;;;;8.05;5.03;;;23.40;53.90;;;;;;6158179;28;80263;-63
2022/01/02 03:32:52;;;;;;;9.50;4.82;;;23.40;53.90;;;;;;6158715;28;81938;-63
2022/01/02 03:35:53;;;;;;;8.90;4.95;;;23.40;53.80;;;;;;6164281;28;80383;-63
2022/01/02 03:38:53;;;;;;;6.47;5.00;;;23.40;53.70;;;;;;6201049;28;81859;-62
2022/01/02 03:41:54;;;;;;;9.15;5.20;;;23.40;53.60;;;;;;6176492;27;80381;-63
2022/01/02 03:44:55;;;;;;;6.70;4.07;;;23.40;53.40;;;;;;6166648;28;82935;-63
2022/01/02 03:47:55;;;;;;;6.93;4.57;;;23.40;53.20;;;;;;6200204;28;81655;-63
2022/01/02 03:50:56;;;;;;;7.13;4.38;;;23.50;53.10;;;;;;6205703;27;83035;-63
2022/01/02 03:53:56;;;;;;;6.85;4.18;;;23.50;53.10;;;;;;6161799;28;82317;-63
2022/01/02 03:56:59;;;;;;;7.00;4.35;;;23.50;52.90;;;;;;6197526;28;82777;-63
2022/01/02 04:00:00;;;;;;;7.40;4.50;;;23.50;52.90;;;;;;6163040;28;83224;-62
2022/01/02 04:03:01;;;;;;;6.68;4.15;;;23.60;52.80;;;;;;6200202;28;83435;-63
2022/01/02 04:06:02;;;;;;;8.57;4.85;;;23.60;52.70;;;;;;6211276;27;83557;-62
2022/01/02 04:09:02;;;;;;;7.20;4.28;;;23.60;52.70;;;;;;6177756;28;82943;-63
2022/01/02 04:12:05;;;;;;;5.80;3.80;;;23.60;52.50;;;;;;6159142;28;83065;-64
2022/01/02 04:15:07;;;;;;;9.57;4.13;;;23.60;52.70;;;;;;6170249;28;83153;-63
2022/01/02 04:18:08;;;;;;;6.55;3.78;;;23.60;52.60;;;;;;6191679;28;83052;-63
2022/01/02 04:21:09;;;;;;;6.30;3.78;;;23.70;52.70;;;;;;6209464;27;83095;-64
2022/01/02 04:24:09;;;;;;;7.32;3.55;;;23.70;52.50;;;;;;6203173;28;82412;-64
2022/01/02 04:27:10;;;;;;;5.25;3.92;;;23.70;53.10;;;;;;6169297;27;80504;-65
2022/01/02 04:30:10;;;;;;;5.47;3.90;;;23.70;52.90;;;;;;6171547;28;81334;-64
2022/01/02 04:33:13;;;;;;;6.28;4.15;;;23.70;52.90;;;;;;6206326;27;83030;-64
2022/01/02 04:36:15;;;;;;;8.90;4.13;;;23.70;52.90;;;;;;6160789;28;83537;-64
2022/01/02 04:39:15;;;;;;;3.92;3.00;;;23.70;52.90;;;;;;6159652;28;82978;-62
2022/01/02 04:42:16;;;;;;;6.03;3.80;;;23.70;52.90;;;;;;6173956;28;80557;-63
2022/01/02 04:45:17;;;;;;;7.20;3.65;;;23.70;52.90;;;;;;6204406;27;82820;-64
2022/01/02 04:48:17;;;;;;;6.93;4.10;;;23.70;52.80;;;;;;6172136;28;82888;-64
2022/01/02 04:51:19;;;;;;;5.68;3.40;;;23.70;52.70;;;;;;6196562;27;82541;-64
2022/01/02 04:54:19;;;;;;;5.97;3.63;;;23.70;52.50;;;;;;6162193;28;83928;-63
2022/01/02 04:57:20;;;;;;;5.55;3.75;;;23.70;52.60;;;;;;6158529;28;82853;-63
2022/01/02 05:00:21;;;;;;;4.68;3.28;;;23.70;52.80;;;;;;6164005;28;81407;-63
2022/01/02 05:03:23;;;;;;;8.18;3.47;;;23.70;52.80;;;;;;6200761;28;81801;-64
2022/01/02 05:06:26;;;;;;;6.07;3.30;;;23.70;52.80;;;;;;6161769;27;80407;-64
2022/01/02 05:09:26;;;;;;;6.95;3.97;;;23.70;52.70;;;;;;6196970;28;81485;-63
2022/01/02 05:12:27;;;;;;;6.57;3.63;;;23.70;52.70;;;;;;6174638;28;83523;-64
2022/01/02 05:15:28;;;;;;;3.67;3.30;;;23.70;52.80;;;;;;6203950;28;83527;-64
2022/01/02 05:18:29;;;;;;;5.03;3.53;;;23.70;52.90;;;;;;6155724;28;81560;-64
2022/01/02 05:21:30;;;;;;;5.43;4.00;;;23.70;52.80;;;;;;6157194;28;83078;-64
2022/01/02 05:24:31;;;;;;;5.25;3.33;;;23.70;52.90;;;;;;6155379;28;82973;-64
2022/01/02 05:27:32;;;;;;;4.95;3.15;;;23.70;52.90;;;;;;6158167;28;81692;-65
2022/01/02 05:30:33;;;;;;;5.78;3.75;;;23.70;52.80;;;;;;6157684;28;83296;-64
2022/01/02 05:33:33;;;;;;;7.28;3.80;;;23.70;52.80;;;;;;6156130;28;81020;-63
2022/01/02 05:36:35;;;;;;;5.78;3.20;;;23.70;52.70;;;;;;6155627;28;83205;-64
2022/01/02 05:39:36;;;;;;;6.90;4.30;;;23.70;52.70;;;;;;6158157;28;80827;-64
2022/01/02 05:42:37;;;;;;;6.78;4.07;;;23.80;52.70;;;;;;6156774;28;83619;-64
2022/01/02 05:45:38;;;;;;;7.38;3.40;;;23.80;52.60;;;;;;6158173;28;80654;-66
2022/01/02 05:48:38;;;;;;;3.83;2.95;;;23.80;52.60;;;;;;6157275;28;83266;-67
2022/01/02 05:51:39;;;;;;;3.83;3.00;;;23.80;52.50;;;;;;6156640;28;80478;-65
2022/01/02 05:54:40;;;;;;;3.97;3.22;;;23.80;52.80;;;;;;6156894;28;81622;-66
2022/01/02 05:57:40;;;;;;;3.90;3.08;;;23.80;52.70;;;;;;6156174;28;83557;-65
2022/01/02 06:00:41;;;;;;;7.18;2.83;;;23.70;53.50;;;;;;6157634;28;81793;-64
2022/01/02 06:03:42;;;;;;;3.95;2.40;;;23.60;55.10;;;;;;6158583;28;81846;-64
2022/01/02 06:06:44;;;;;;;6.72;1.90;;;23.60;56.40;;;;;;6158076;28;82701;-63
2022/01/02 06:09:44;;;;;;;3.72;1.95;;;23.60;57.50;;;;;;6157818;28;83133;-63
2022/01/02 06:12:46;;;;;;;4.80;1.88;;;23.60;58.00;;;;;;6158021;28;83397;-64
2022/01/02 06:15:47;;;;;;;2.28;1.92;;;23.60;58.90;;;;;;6158728;28;80731;-64
2022/01/02 06:18:48;;;;;;;7.63;1.90;;;23.50;59.10;;;;;;6157392;28;83563;-65
2022/01/02 06:21:49;;;;;;;5.30;2.20;;;23.50;59.90;;;;;;6160827;28;81121;-64
2022/01/02 06:24:50;;;;;;;5.88;2.10;;;23.50;60.60;;;;;;6158186;28;83605;-64
2022/01/02 06:27:50;;;;;;;3.50;2.10;;;23.60;61.70;;;;;;6159137;28;80512;-64
2022/01/02 06:30:51;;;;;;;2.15;1.77;;;23.60;62.30;;;;;;6146502;28;84549;-65
2022/01/02 06:33:52;;;;;;;3.58;2.50;;;23.60;63.10;;;;;;6156898;28;86481;-64
2022/01/02 06:36:52;;;;;;;2.10;1.90;;;23.60;64.00;;;;;;6155937;28;81475;-64
2022/01/02 06:39:53;;;;;;;4.22;1.92;;;23.60;65.20;;;;;;6157215;28;80690;-64
2022/01/02 06:42:53;;;;;;;2.53;1.90;;;23.60;66.10;;;;;;6156887;28;82239;-64
2022/01/02 06:45:54;;;;;;;3.60;2.53;;;23.60;65.90;;;;;;6156197;28;82539;-64
2022/01/02 06:48:55;;;;;;;3.95;1.98;;;23.60;65.80;;;;;;6157247;28;83147;-65
2022/01/02 06:51:55;;;;;;;3.67;2.17;;;23.60;65.60;;;;;;6158887;28;80443;-64
2022/01/02 06:54:56;;;;;;;2.58;1.90;;;23.50;65.70;;;;;;6158475;28;80417;-64
2022/01/02 06:57:57;;;;;;;4.22;2.20;;;23.40;66.40;;;;;;6157291;28;81587;-63
2022/01/02 07:00:57;;;;;;;3.35;2.25;;;23.40;66.50;;;;;;6157397;28;82956;-64
2022/01/02 07:04:00;;;;;;;4.72;2.53;;;23.50;65.70;;;;;;6159035;27;82244;-64
2022/01/02 07:07:01;;;;;;;12.25;2.75;;;23.60;64.60;;;;;;6158174;28;86536;-64
2022/01/02 07:10:02;;;;;;;4.32;2.40;;;23.60;64.40;;;;;;6157214;28;82110;-64
2022/01/02 07:13:02;;;;;;;3.10;2.53;;;23.70;63.40;;;;;;6163745;28;80607;-63
2022/01/02 07:16:03;;;;;;;4.47;2.53;;;23.70;62.60;;;;;;6162910;28;80921;-62
2022/01/02 07:19:03;;;;;;;5.80;2.90;;;23.70;62.10;;;;;;6163022;28;80467;-63
2022/01/02 07:22:05;;;;;;;4.13;2.67;;;23.70;61.70;;;;;;6162781;28;80858;-65
2022/01/02 07:25:05;;;;;;;3.00;2.40;;;23.60;61.60;;;;;;6161994;28;80646;-64
2022/01/02 07:28:06;;;;;;;4.82;2.80;;;23.70;61.30;;;;;;6161646;28;81358;-64
2022/01/02 07:31:06;;;;;;;11.75;2.75;;;23.70;61.00;;;;;;6151540;28;81684;-63
2022/01/02 07:34:07;;;;;;;6.93;3.08;;;23.70;61.00;;;;;;6162629;28;80335;-64
2022/01/02 07:37:07;;;;;;;9.80;3.55;;;23.70;60.10;;;;;;6154693;28;80785;-64
2022/01/02 07:40:08;;;;;;;5.28;3.25;;;23.70;59.80;;;;;;6152516;28;80696;-65
2022/01/02 07:43:08;;;;;;;6.57;3.28;;;23.80;59.70;;;;;;6159334;28;80908;-64
2022/01/02 07:46:09;;;;;;;9.38;3.42;;;23.80;59.20;;;;;;6159436;28;82122;-65
2022/01/02 07:49:10;;;;;;;5.07;2.90;;;23.80;58.80;;;;;;6161396;28;81772;-64
2022/01/02 07:52:11;;;;;;;7.82;3.40;;;23.90;58.50;;;;;;6160286;28;80878;-63
2022/01/02 07:55:11;;;;;;;4.55;2.80;;;23.80;57.60;;;;;;6163650;28;81424;-64
2022/01/02 07:58:12;;;;;;;6.28;3.17;;;23.80;57.80;;;;;;6162183;28;80975;-65
2022/01/02 08:01:12;;;;;;;7.50;2.92;;;23.80;57.60;;;;;;6162002;28;80214;-63
2022/01/02 08:04:13;;;;;;;5.03;3.33;;;23.80;56.90;;;;;;6161961;28;82477;-63
2022/01/02 08:07:13;;;;;;;6.32;3.28;;;23.80;56.90;;;;;;6160962;28;80629;-63
2022/01/02 08:10:14;;;;;;;4.47;3.22;;;23.90;56.80;;;;;;6163430;28;81151;-64
2022/01/02 08:13:14;;;;;;;6.60;3.40;;;23.90;56.90;;;;;;6162199;28;80071;-63
2022/01/02 08:16:15;;;;;;;5.47;3.08;;;23.90;56.20;;;;;;6161716;28;80331;-63
2022/01/02 08:19:15;;;;;;;6.22;3.70;;;23.90;56.00;;;;;;6160296;28;81366;-62
2022/01/02 08:22:16;;;;;;;6.10;4.03;;;23.80;56.80;;;;;;6159880;28;80359;-64
2022/01/02 08:25:16;;;;;;;5.13;3.45;;;23.80;56.80;;;;;;6158925;28;80473;-64
2022/01/02 08:28:17;;;;;;;7.72;4.05;;;23.80;56.50;;;;;;6159816;28;80298;-63
2022/01/02 08:31:17;;;;;;;9.40;3.70;;;23.80;56.10;;;;;;6156682;28;82861;-63
2022/01/02 08:34:18;;;;;;;5.93;3.95;;;23.90;56.40;;;;;;6157183;28;80912;-63
2022/01/02 08:37:18;;;;;;;9.30;4.13;;;23.90;56.10;;;;;;6156427;28;81403;-63
2022/01/02 08:40:19;;;;;;;6.82;4.60;;;23.90;56.30;;;;;;6157876;28;80137;-66
2022/01/02 08:43:20;;;;;;;6.72;3.80;;;23.90;56.30;;;;;;6160287;28;80669;-65
2022/01/02 08:46:20;;;;;;;5.45;3.90;;;23.90;57.00;;;;;;6190530;28;82546;-63
2022/01/02 08:49:21;;;;;;;226.05;117.13;;;23.90;57.50;;;;;;6157627;28;80981;-65
2022/01/02 08:52:22;;;;;;;353.23;179.90;;;23.80;57.70;;;;;;6153980;28;85219;-64
2022/01/02 08:55:22;;;;;;;411.50;212.65;;;23.90;58.30;;;;;;6153317;28;86334;-64
2022/01/02 08:58:23;;;;;;;382.02;194.13;;;23.90;57.90;;;;;;6154370;28;86060;-64
2022/01/02 09:01:23;;;;;;;326.35;166.85;;;23.90;57.40;;;;;;6153319;28;85714;-63
2022/01/02 09:04:24;;;;;;;245.73;120.28;;;24.00;57.10;;;;;;6155783;28;85780;-64
2022/01/02 09:07:24;;;;;;;286.90;144.15;;;24.00;56.90;;;;;;6151752;28;86443;-63
2022/01/02 09:10:25;;;;;;;333.50;170.77;;;24.00;56.60;;;;;;6152202;28;85555;-64
2022/01/02 09:13:26;;;;;;;386.95;193.45;;;24.10;56.30;;;;;;6152224;28;85778;-63
2022/01/02 09:16:27;;;;;;;423.90;211.23;;;24.20;55.90;;;;;;6148680;28;85877;-61
2022/01/02 09:19:27;;;;;;;351.33;177.40;;;24.30;55.90;;;;;;6152448;28;85495;-61
2022/01/02 09:22:28;;;;;;;324.83;157.50;;;24.40;56.10;;;;;;6153892;28;85607;-64
2022/01/02 09:25:28;;;;;;;290.05;147.02;;;24.50;55.70;;;;;;6151716;28;85873;-66
2022/01/02 09:28:29;;;;;;;261.10;132.38;;;24.60;55.00;;;;;;6152520;28;86310;-63
2022/01/02 09:31:29;;;;;;;234.63;117.38;;;24.60;55.20;;;;;;6153853;27;86675;-62
2022/01/02 09:34:30;;;;;;;231.95;111.43;;;24.60;54.90;;;;;;6150785;28;87151;-63
2022/01/02 09:37:30;;;;;;;199.52;99.28;;;24.70;54.70;;;;;;6151171;28;85661;-63
2022/01/02 09:40:32;;;;;;;186.88;93.30;;;24.80;54.70;;;;;;6154680;28;85406;-62
2022/01/02 09:43:32;;;;;;;140.13;70.75;;;24.80;54.30;;;;;;6154189;28;83346;-62
2022/01/02 09:46:33;;;;;;;116.40;59.53;;;24.90;53.60;;;;;;6152223;28;83568;-63
2022/01/02 09:49:33;;;;;;;108.70;52.15;;;24.90;52.90;;;;;;6154585;28;83555;-63
2022/01/02 09:52:34;;;;;;;95.43;46.40;;;24.90;51.80;;;;;;6155374;28;84143;-63
2022/01/02 09:55:34;;;;;;;80.05;37.15;;;24.90;51.50;;;;;;6151319;28;84745;-63
2022/01/02 09:58:35;;;;;;;68.57;33.78;;;24.90;51.00;;;;;;6153901;28;83096;-63
2022/01/02 10:01:36;;;;;;;55.95;27.83;;;24.90;50.40;;;;;;6153426;28;83665;-64
2022/01/02 10:04:36;;;;;;;45.97;23.13;;;24.90;50.10;;;;;;6154870;28;84107;-64
2022/01/02 10:07:37;;;;;;;36.10;19.08;;;24.90;49.20;;;;;;6154455;28;83183;-66
2022/01/02 10:10:37;;;;;;;34.83;17.17;;;24.90;48.40;;;;;;6150663;28;83581;-64
2022/01/02 10:13:38;;;;;;;27.10;14.50;;;24.90;47.90;;;;;;6155341;28;83165;-64
2022/01/02 10:16:38;;;;;;;25.80;13.93;;;24.80;48.00;;;;;;6153253;28;83175;-64
2022/01/02 10:19:42;;;;;;;20.05;11.65;;;24.70;47.00;;;;;;6155935;28;83975;-64
2022/01/02 10:22:42;;;;;;;16.58;9.80;;;24.70;46.90;;;;;;6151367;28;84077;-64
2022/01/02 10:25:43;;;;;;;20.20;8.07;;;24.70;46.60;;;;;;6154717;28;81973;-64
2022/01/02 10:28:43;;;;;;;15.52;8.30;;;24.70;46.10;;;;;;6157956;28;80617;-63
2022/01/02 10:31:44;;;;;;;12.10;5.93;;;24.70;45.70;;;;;;6155646;28;81013;-64
2022/01/02 10:34:44;;;;;;;10.80;5.97;;;24.90;46.50;;;;;;6151232;28;81352;-64
2022/01/02 10:37:45;;;;;;;9.68;5.72;;;24.80;46.20;;;;;;6153939;28;81491;-64
2022/01/02 10:40:47;;;;;;;10.93;5.55;;;24.90;46.10;;;;;;6154280;28;81170;-67
2022/01/02 10:43:47;;;;;;;9.50;4.90;;;25.10;45.80;;;;;;6157193;28;80613;-63
2022/01/02 10:46:48;;;;;;;7.82;4.57;;;25.10;45.40;;;;;;6162227;28;81554;-64
2022/01/02 10:49:48;;;;;;;8.00;4.70;;;25.00;45.50;;;;;;6162154;28;80656;-66
2022/01/02 10:52:49;;;;;;;10.13;4.30;;;25.00;45.60;;;;;;6163952;28;80582;-63
2022/01/02 10:55:49;;;;;;;8.20;4.15;;;24.90;45.00;;;;;;6154140;28;81312;-64
2022/01/02 10:58:50;;;;;;;6.22;3.95;;;24.70;45.30;;;;;;6143326;28;81339;-63
2022/01/02 11:01:50;;;;;;;8.20;4.00;;;24.70;45.80;;;;;;6160912;28;80605;-63
2022/01/02 11:04:51;;;;;;;7.13;4.95;;;24.60;45.00;;;;;;6160527;28;83868;-64
2022/01/02 11:07:51;;;;;;;7.70;4.68;;;24.50;44.50;;;;;;6160843;28;85738;-64
2022/01/02 11:10:52;;;;;;;7.13;4.35;;;24.50;44.70;;;;;;6162710;28;80335;-66
2022/01/02 11:13:53;;;;;;;9.77;4.90;;;24.50;45.60;;;;;;6163383;28;80375;-64
2022/01/02 11:16:53;;;;;;;6.20;4.20;;;24.50;45.60;;;;;;6160918;28;82196;-66
2022/01/02 11:19:54;;;;;;;16.55;4.68;;;24.40;45.30;;;;;;6161076;28;81397;-66
2022/01/02 11:22:56;;;;;;;5.90;3.78;;;24.40;45.30;;;;;;6162864;28;80097;-64
2022/01/02 11:25:57;;;;;;;6.53;3.92;;;24.40;45.60;;;;;;6162346;28;81033;-65
2022/01/02 11:28:58;;;;;;;7.55;4.00;;;24.40;45.50;;;;;;6160644;28;81497;-66
2022/01/02 11:31:58;;;;;;;6.10;3.72;;;24.30;45.40;;;;;;6160795;28;81833;-63
2022/01/02 11:34:59;;;;;;;6.00;3.90;;;24.20;45.40;;;;;;6164158;28;80434;-64
2022/01/02 11:38:02;;;;;;;9.10;5.07;;;24.10;45.60;;;;;;6159988;28;80408;-64
2022/01/02 11:41:03;;;;;;;6.68;4.95;;;24.10;46.10;;;;;;6161335;28;80921;-63
2022/01/02 11:44:04;;;;;;;6.90;4.35;;;24.10;45.50;;;;;;6161273;28;81756;-68
2022/01/02 11:47:05;;;;;;;8.23;4.30;;;24.00;45.60;;;;;;6159217;28;80321;-62
2022/01/02 11:50:05;;;;;;;8.15;4.57;;;24.00;45.60;;;;;;6161998;28;80293;-63
2022/01/02 11:53:06;;;;;;;6.93;4.07;;;23.90;45.50;;;;;;6157451;28;81750;-63
2022/01/02 11:56:07;;;;;;;6.68;4.20;;;23.80;45.50;;;;;;6155758;28;80669;-63
2022/01/02 11:59:07;;;;;;;11.98;4.68;;;23.70;45.70;;;;;;6160646;28;81167;-64
2022/01/02 12:02:08;;;;;;;6.90;4.65;;;23.60;45.80;;;;;;6161648;28;80628;-64
2022/01/02 12:05:12;;;;;;;9.25;4.25;;;23.60;46.70;;;;;;6162910;28;81066;-64
2022/01/02 12:08:13;;;;;;;10.32;4.65;;;23.50;46.50;;;;;;6172213;28;80477;-64
2022/01/02 12:11:13;;;;;;;7.68;4.63;;;23.40;46.60;;;;;;6163206;28;80841;-63
2022/01/02 12:14:14;;;;;;;9.60;4.50;;;23.40;46.70;;;;;;6160417;28;80995;-63
2022/01/02 12:17:14;;;;;;;10.02;5.45;;;23.40;46.90;;;;;;6162554;27;80558;-64
2022/01/02 12:20:15;;;;;;;11.25;4.50;;;23.40;48.40;;;;;;6150263;28;80423;-64
2022/01/02 12:23:15;;;;;;;8.40;4.47;;;23.50;48.50;;;;;;6161958;28;81469;-64
2022/01/02 12:26:16;;;;;;;7.63;4.30;;;23.60;48.80;;;;;;6156275;28;81076;-64
2022/01/02 12:29:17;;;;;;;8.23;4.32;;;23.60;48.30;;;;;;6149300;28;81706;-66
2022/01/02 12:32:17;;;;;;;8.63;4.43;;;23.70;48.30;;;;;;6157464;28;81353;-64
2022/01/02 12:35:18;;;;;;;7.38;4.57;;;23.80;49.20;;;;;;6161529;28;80521;-65
2022/01/02 12:38:18;;;;;;;5.68;3.80;;;23.80;48.60;;;;;;6159474;28;80403;-65
2022/01/02 12:41:19;;;;;;;9.25;4.63;;;23.90;48.50;;;;;;6148992;28;80556;-64
2022/01/02 12:44:19;;;;;;;8.07;4.50;;;24.00;48.40;;;;;;6160274;28;80156;-64
2022/01/02 12:47:24;;;;;;;6.30;3.92;;;24.00;48.60;;;;;;6160163;28;80742;-63
2022/01/02 12:50:25;;;;;;;8.48;4.30;;;24.10;48.60;;;;;;6160914;28;80360;-62
2022/01/02 12:53:25;;;;;;;8.13;4.90;;;24.10;48.30;;;;;;6161316;28;80425;-63
2022/01/02 12:56:26;;;;;;;7.63;4.53;;;24.20;48.30;;;;;;6160715;28;80508;-64
2022/01/02 12:59:26;;;;;;;7.80;4.88;;;24.30;48.50;;;;;;6156864;28;80957;-64
2022/01/02 13:02:29;;;;;;;10.27;4.72;;;24.40;49.00;;;;;;6155911;28;81446;-64
2022/01/02 13:05:29;;;;;;;7.45;5.18;;;24.50;49.10;;;;;;6161382;28;80783;-64
2022/01/02 13:08:30;;;;;;;9.10;5.45;;;24.50;48.90;;;;;;6160388;28;80874;-64
2022/01/02 13:11:30;;;;;;;9.90;4.70;;;24.60;49.20;;;;;;6160792;28;80786;-64
2022/01/02 13:14:31;;;;;;;7.80;4.68;;;24.50;49.10;;;;;;6166403;28;80308;-63
2022/01/02 13:17:31;;;;;;;10.35;5.93;;;24.50;49.00;;;;;;6156074;28;87580;-64
2022/01/02 13:20:38;;;;;;;9.77;5.82;;;24.50;49.00;;;;;;6160283;28;80512;-63
2022/01/02 13:23:38;;;;;;;8.32;5.75;;;24.50;49.00;;;;;;6157192;28;80663;-63
2022/01/02 13:26:39;;;;;;;13.70;6.82;;;24.50;48.90;;;;;;6159627;28;81068;-63
2022/01/02 13:29:40;;;;;;;9.82;6.07;;;24.50;48.70;;;;;;6159646;28;80443;-62
2022/01/02 13:32:40;;;;;;;14.18;6.65;;;24.40;48.70;;;;;;6160213;28;80308;-63
2022/01/02 13:35:41;;;;;;;9.23;6.28;;;24.40;48.70;;;;;;6159946;28;80783;-64
2022/01/02 13:38:41;;;;;;;9.25;5.82;;;24.30;49.30;;;;;;6158244;28;81446;-64
2022/01/02 13:41:42;;;;;;;10.80;6.47;;;24.40;49.00;;;;;;6162090;28;80710;-65
2022/01/02 13:44:43;;;;;;;10.40;6.90;;;24.40;48.90;;;;;;6191682;28;81897;-64
2022/01/02 13:47:43;;;;;;;10.88;6.25;;;24.40;49.40;;;;;;6157205;28;82227;-64
2022/01/02 13:50:44;;;;;;;10.55;6.95;;;24.40;48.80;;;;;;6190851;28;80860;-65
2022/01/02 13:53:44;;;;;;;9.65;6.15;;;24.30;49.20;;;;;;6159436;28;80701;-66
2022/01/02 13:56:45;;;;;;;9.95;6.35;;;24.30;49.60;;;;;;6158938;28;81103;-64
2022/01/02 13:59:46;;;;;;;11.82;7.47;;;24.30;49.90;;;;;;6156079;28;80808;-64
2022/01/02 14:02:51;;;;;;;12.88;7.10;;;24.20;50.20;;;;;;6157265;28;80710;-64
2022/01/02 14:05:52;;;;;;;12.25;7.25;;;24.20;50.10;;;;;;6156146;28;80699;-64
2022/01/02 14:08:54;;;;;;;13.13;7.63;;;24.20;50.90;;;;;;6157748;28;80537;-64
2022/01/02 14:11:55;;;;;;;12.55;7.53;;;24.20;50.80;;;;;;6159133;28;81564;-64
2022/01/02 14:15:07;;;;;;;12.00;7.13;;;24.30;50.30;;;;;;6159235;28;80816;-64
2022/01/02 14:18:08;;;;;;;13.73;7.88;;;24.20;50.20;;;;;;6159816;28;80540;-64
2022/01/02 14:21:08;;;;;;;12.98;7.72;;;24.20;50.10;;;;;;6159897;28;81589;-65
2022/01/02 14:24:09;;;;;;;15.80;8.20;;;24.20;50.10;;;;;;6159355;28;80786;-63
2022/01/02 14:27:09;;;;;;;15.63;8.38;;;24.30;50.10;;;;;;6159244;28;80569;-63
2022/01/02 14:30:10;;;;;;;13.27;8.18;;;24.30;50.10;;;;;;6157951;28;81162;-64
2022/01/02 14:33:10;;;;;;;12.63;7.78;;;24.30;50.00;;;;;;6161008;28;80742;-63
2022/01/02 14:36:11;;;;;;;16.73;9.20;;;24.20;50.00;;;;;;6147530;28;80507;-63
2022/01/02 14:39:11;;;;;;;14.48;8.80;;;24.20;50.30;;;;;;6148609;28;82497;-63
2022/01/02 14:42:12;;;;;;;18.67;9.93;;;24.20;49.90;;;;;;6159678;28;80287;-63
2022/01/02 14:45:12;;;;;;;13.88;8.63;;;24.30;49.90;;;;;;6159261;28;80336;-64
2022/01/02 14:48:13;;;;;;;20.05;10.65;;;24.20;49.80;;;;;;6153841;28;80539;-63
2022/01/02 14:51:14;;;;;;;18.75;11.32;;;24.20;49.60;;;;;;6146320;28;83052;-64
2022/01/02 14:54:15;;;;;;;18.85;10.88;;;24.20;49.40;;;;;;6147112;28;83443;-64
2022/01/02 14:57:16;;;;;;;25.70;12.68;;;24.20;49.40;;;;;;6154813;28;83133;-65
2022/01/02 15:00:16;;;;;;;22.48;12.20;;;24.10;49.60;;;;;;6152777;28;83074;-64
2022/01/02 15:03:17;;;;;;;23.88;11.43;;;24.10;50.10;;;;;;6153814;28;83760;-64
2022/01/02 15:06:17;;;;;;;20.42;10.93;;;24.10;51.30;;;;;;6152590;28;85611;-64
2022/01/02 15:09:18;;;;;;;21.40;12.30;;;24.10;52.50;;;;;;6149895;28;83482;-64
2022/01/02 15:12:18;;;;;;;21.02;12.15;;;24.10;53.00;;;;;;6149199;28;84716;-63
2022/01/02 15:15:21;;;;;;;25.88;12.63;;;24.00;53.60;;;;;;6154484;28;85149;-64
2022/01/02 15:18:21;;;;;;;19.55;11.07;;;24.10;54.30;;;;;;6175881;28;84161;-64
2022/01/02 15:21:22;;;;;;;18.73;11.52;;;24.10;54.60;;;;;;6153149;28;84484;-65
2022/01/02 15:24:23;;;;;;;20.35;11.00;;;24.10;54.50;;;;;;6154401;28;84043;-64
2022/01/02 15:27:23;;;;;;;21.85;11.25;;;24.10;54.50;;;;;;6154712;28;83166;-66
2022/01/02 15:30:23;;;;;;;20.83;12.18;;;24.10;54.70;;;;;;6153800;28;83609;-64
2022/01/02 15:33:24;;;;;;;20.42;11.48;;;24.10;54.80;;;;;;6158253;28;83379;-64
2022/01/02 15:36:25;;;;;;;18.55;10.93;;;24.10;54.90;;;;;;6153513;28;83397;-66
2022/01/02 15:39:25;;;;;;;19.92;11.73;;;24.10;55.00;;;;;;6158749;28;84266;-66